Terminal Aerodrome Forecast
Issued by NWS

Home | Current Version | Previous Version | Text Only | Print | Product List | Glossary On
Versions: 1 2 3 4 5 6 7 8 9 10 11 12 13
000
FTUS44 KLIX 201737
TAFHUM
TAF
KHUM 201737Z 2018/2118 20006KT P6SM SCT030 SCT120
     FM210100 00000KT P6SM FEW015 FEW200
      TEMPO 2110/2113 5SM BR
     FM211500 03004KT P6SM SCT020 SCT250=

USA.gov is the U.S. government's official web portal to all federal, state and local government web resources and services.